Time;durP1;ratioP1;P1;durP2;ratioP2;P2;SDS_P1;SDS_P2;PMS_P1;PMS_P2;Temp;Humidity;BMP_temperature;BMP_pressure;BME280_temperature;BME280_humidity;BME280_pressure;Samples;Min_cycle;Max_cycle;Signal;HPM_P1;HPM_P2
2022/11/18 00:00:02;;;;;;;50.13;46.30;;;;;;;2.82;100.00;100340.31;4992481;28;20588;-47
2022/11/18 00:02:30;;;;;;;49.03;45.20;;;;;;;2.85;100.00;100362.88;4992809;28;20482;-46
2022/11/18 00:04:57;;;;;;;52.07;48.23;;;;;;;2.88;100.00;100360.75;4992978;28;20444;-45
2022/11/18 00:07:26;;;;;;;49.77;46.20;;;;;;;2.84;100.00;100363.88;4992937;28;20440;-46
2022/11/18 00:09:54;;;;;;;51.60;47.70;;;;;;;2.84;100.00;100361.25;4992127;28;20475;-48
2022/11/18 00:15:17;;;;;;;51.90;47.90;;;;;;;2.87;100.00;100367.00;4969099;28;20433;-47
2022/11/18 00:17:44;;;;;;;53.40;49.20;;;;;;;2.85;100.00;100360.25;4992601;28;20434;-46
2022/11/18 00:20:12;;;;;;;49.80;46.00;;;;;;;2.83;100.00;100359.59;4992256;28;20473;-49
2022/11/18 00:22:40;;;;;;;53.60;49.13;;;;;;;2.89;100.00;100370.31;4992243;28;20971;-50
2022/11/18 00:25:08;;;;;;;54.10;49.83;;;;;;;2.86;100.00;100351.38;4992556;28;21010;-47
2022/11/18 00:27:36;;;;;;;52.30;48.13;;;;;;;2.83;100.00;100370.94;4992734;28;20434;-50
2022/11/18 00:30:04;;;;;;;55.83;51.30;;;;;;;2.81;100.00;100356.28;4992011;28;20474;-47
2022/11/18 00:32:33;;;;;;;57.97;52.97;;;;;;;2.77;100.00;100359.22;4992473;28;20430;-48
2022/11/18 00:35:01;;;;;;;57.77;52.93;;;;;;;2.76;100.00;100357.56;4992415;28;20437;-48
2022/11/18 00:37:28;;;;;;;58.03;53.23;;;;;;;2.74;100.00;100362.19;4992716;28;20438;-47
2022/11/18 00:39:56;;;;;;;63.53;58.20;;;;;;;2.76;100.00;100381.25;4991951;28;20474;-47
2022/11/18 00:45:09;;;;;;;63.13;57.70;;;;;;;2.79;100.00;100364.31;4992467;28;20855;-49
2022/11/18 00:47:38;;;;;;;57.73;52.90;;;;;;;2.76;100.00;100364.63;4992253;28;20434;-45
2022/11/18 00:50:06;;;;;;;58.10;53.00;;;;;;;2.81;100.00;100377.34;4991805;28;20474;-51
2022/11/18 00:52:34;;;;;;;56.03;50.97;;;;;;;2.83;100.00;100378.84;4990141;28;20427;-49
2022/11/18 00:55:02;;;;;;;60.00;51.23;;;;;;;2.74;100.00;100372.72;4992362;28;20434;-48
2022/11/18 00:57:29;;;;;;;55.90;51.10;;;;;;;2.72;100.00;100385.19;4992366;28;20422;-45
2022/11/18 00:59:57;;;;;;;56.23;51.40;;;;;;;2.72;100.00;100384.34;4991682;28;20959;-50
2022/11/18 01:02:25;;;;;;;55.73;51.00;;;;;;;2.73;100.00;100384.22;4993647;28;20430;-46
2022/11/18 01:04:54;;;;;;;56.43;51.37;;;;;;;2.74;100.00;100388.50;4996234;28;20442;-47
2022/11/18 01:07:21;;;;;;;56.60;51.47;;;;;;;2.74;100.00;100385.88;4996247;28;20433;-47
2022/11/18 01:09:49;;;;;;;55.30;50.10;;;;;;;2.76;100.00;100368.09;4995582;28;20469;-46
2022/11/18 01:15:02;;;;;;;55.03;50.30;;;;;;;2.74;100.00;100399.03;4996136;28;20961;-48
2022/11/18 01:17:30;;;;;;;53.87;49.13;;;;;;;2.75;100.00;100407.75;4996232;28;20823;-47
2022/11/18 01:20:00;;;;;;;57.23;52.27;;;;;;;2.74;100.00;100388.50;4995452;28;20473;-48
2022/11/18 01:22:27;;;;;;;58.57;52.97;;;;;;;2.72;100.00;100382.53;4995752;28;20484;-48
2022/11/18 01:24:55;;;;;;;55.43;50.37;;;;;;;2.75;100.00;100403.31;4995787;28;20440;-46
2022/11/18 01:27:22;;;;;;;55.17;49.97;;;;;;;2.78;100.00;100410.91;4996141;28;20438;-45
2022/11/18 01:29:50;;;;;;;55.80;50.60;;;;;;;2.83;100.00;100412.25;4995356;28;20469;-46
2022/11/18 01:32:18;;;;;;;53.33;48.80;;;;;;;2.85;100.00;100411.09;4995552;28;20436;-46
2022/11/18 01:34:52;;;;;;;54.50;49.60;;;;;;;2.81;100.00;100412.38;4995863;28;20440;-48
2022/11/18 01:37:21;;;;;;;51.47;47.00;;;;;;;2.80;100.00;100418.66;4995635;28;20950;-51
2022/11/18 01:39:49;;;;;;;53.10;48.50;;;;;;;2.75;100.00;100400.66;4995266;28;20833;-45
2022/11/18 01:42:17;;;;;;;52.17;48.00;;;;;;;2.77;100.00;100424.22;4995355;28;20436;-50
2022/11/18 01:45:15;;;;;;;51.10;46.90;;;;;;;2.75;100.00;100440.16;4995593;28;20485;-46
2022/11/18 01:47:48;;;;;;;50.63;46.50;;;;;;;2.76;100.00;100415.50;4994930;28;20942;-49
2022/11/18 01:50:18;;;;;;;52.63;48.30;;;;;;;2.77;100.00;100426.84;4994100;28;20813;-48
2022/11/18 01:52:48;;;;;;;51.87;47.50;;;;;;;2.75;100.00;100421.72;4989288;28;20441;-45
2022/11/18 01:55:22;;;;;;;51.97;47.37;;;;;;;2.75;100.00;100415.63;4995340;28;20433;-48
2022/11/18 01:57:55;;;;;;;52.50;48.20;;;;;;;2.77;100.00;100425.06;4995511;28;20434;-48
2022/11/18 02:00:22;;;;;;;49.37;45.43;;;;;;;2.80;100.00;100426.56;4994655;28;20473;-48
2022/11/18 02:02:51;;;;;;;50.70;46.90;;;;;;;2.74;100.00;100425.38;4995268;28;20438;-48
2022/11/18 02:05:20;;;;;;;54.00;49.53;;;;;;;2.78;100.00;100431.13;4995194;28;20438;-45
2022/11/18 02:07:49;;;;;;;50.47;46.27;;;;;;;2.75;100.00;100431.44;4995062;28;20920;-45
2022/11/18 02:10:20;;;;;;;52.13;47.73;;;;;;;2.78;100.00;100431.97;4994456;28;20560;-50
2022/11/18 02:12:50;;;;;;;49.10;45.13;;;;;;;2.82;100.00;100436.91;4994715;28;20434;-48
2022/11/18 02:15:24;;;;;;;49.20;45.20;;;;;;;2.80;100.00;100431.81;4994189;28;20951;-47
2022/11/18 02:17:59;;;;;;;50.17;46.13;;;;;;;2.81;100.00;100432.66;4994930;28;20437;-47
2022/11/18 02:20:36;;;;;;;51.93;47.67;;;;;;;2.76;100.00;100433.94;4994434;28;20855;-46
2022/11/18 02:23:44;;;;;;;51.17;46.63;;;;;;;2.77;100.00;100432.97;4994604;28;20434;-45
2022/11/18 02:26:44;;;;;;;49.03;45.33;;;;;;;2.76;100.00;100441.81;4994727;28;20437;-46
2022/11/18 02:29:17;;;;;;;51.87;47.20;;;;;;;2.69;100.00;100432.88;4990341;28;20816;-46
2022/11/18 02:31:53;;;;;;;49.07;45.27;;;;;;;2.72;100.00;100437.00;4994381;28;20439;-48
2022/11/18 02:34:36;;;;;;;51.13;47.00;;;;;;;2.70;100.00;100436.34;4994931;28;20492;-46
2022/11/18 02:37:12;;;;;;;49.50;45.47;;;;;;;2.68;100.00;100440.94;4994629;28;20430;-49
2022/11/18 02:39:47;;;;;;;52.13;48.13;;;;;;;2.60;100.00;100444.31;4994074;28;20520;-48
2022/11/18 02:42:16;;;;;;;51.73;47.60;;;;;;;2.63;100.00;100443.19;4994266;28;20422;-45
2022/11/18 02:44:50;;;;;;;54.77;50.07;;;;;;;2.65;100.00;100443.88;4994524;28;21003;-45
2022/11/18 02:47:20;;;;;;;50.53;46.40;;;;;;;2.64;100.00;100443.06;4994642;28;20504;-45
2022/11/18 02:49:52;;;;;;;51.07;47.00;;;;;;;2.69;100.00;100443.41;4994009;28;20470;-50
2022/11/18 02:52:21;;;;;;;49.50;45.50;;;;;;;2.70;100.00;100438.97;4993864;28;20438;-45
2022/11/18 02:54:51;;;;;;;51.30;46.83;;;;;;;2.67;100.00;100434.84;4994457;28;20441;-46
2022/11/18 02:57:21;;;;;;;49.70;45.60;;;;;;;2.67;100.00;100436.66;4994596;28;20496;-49
2022/11/18 02:59:50;;;;;;;52.27;47.87;;;;;;;2.65;100.00;100441.25;4993711;28;20473;-45
2022/11/18 03:02:19;;;;;;;48.83;44.70;;;;;;;2.64;100.00;100450.94;4993946;28;20438;-46
2022/11/18 03:04:49;;;;;;;49.93;45.80;;;;;;;2.65;100.00;100436.81;4993976;28;20473;-45
2022/11/18 03:07:24;;;;;;;51.37;46.43;;;;;;;2.67;100.00;100450.66;4993989;28;20441;-45
2022/11/18 03:09:53;;;;;;;51.67;47.27;;;;;;;2.69;100.00;100442.56;4993543;28;20470;-47
2022/11/18 03:12:29;;;;;;;50.93;46.73;;;;;;;2.72;100.00;100439.63;4994386;28;20954;-45
2022/11/18 03:15:07;;;;;;;47.03;43.33;;;;;;;2.70;100.00;100439.81;4993911;28;20433;-48
2022/11/18 03:17:48;;;;;;;49.10;45.40;;;;;;;2.65;100.00;100447.34;4993753;28;21491;-45
2022/11/18 03:20:22;;;;;;;48.50;44.57;;;;;;;2.61;100.00;100443.34;4993322;28;20465;-45
2022/11/18 03:22:55;;;;;;;48.97;45.53;;;;;;;2.62;100.00;100433.66;4993714;28;20796;-45
2022/11/18 03:25:32;;;;;;;46.90;43.47;;;;;;;2.61;100.00;100455.69;4993462;28;20477;-50
2022/11/18 03:28:06;;;;;;;46.23;42.53;;;;;;;2.59;100.00;100463.75;4993544;28;20803;-48
2022/11/18 03:30:39;;;;;;;45.73;41.77;;;;;;;2.58;100.00;100456.81;4993041;28;20465;-47
2022/11/18 03:33:12;;;;;;;45.57;42.37;;;;;;;2.57;100.00;100468.31;4993519;28;20476;-47
2022/11/18 03:35:44;;;;;;;46.50;42.90;;;;;;;2.58;100.00;100467.34;4993426;28;20430;-47
2022/11/18 03:38:18;;;;;;;46.17;42.37;;;;;;;2.56;100.00;100464.06;4993007;28;21005;-50
2022/11/18 03:40:51;;;;;;;42.00;39.10;;;;;;;2.49;100.00;100465.63;4993340;28;20471;-47
2022/11/18 03:43:22;;;;;;;43.30;40.30;;;;;;;2.43;100.00;100460.97;4993223;28;20433;-48
2022/11/18 03:45:54;;;;;;;44.90;41.80;;;;;;;2.47;100.00;100461.50;4993337;28;20832;-47
2022/11/18 03:48:26;;;;;;;45.00;41.90;;;;;;;2.45;100.00;100463.47;4992719;28;20430;-47
2022/11/18 03:50:59;;;;;;;44.27;41.10;;;;;;;2.41;100.00;100478.72;4992813;28;21030;-47
2022/11/18 03:53:31;;;;;;;44.57;41.60;;;;;;;2.43;100.00;100471.50;4991030;28;20434;-47
2022/11/18 03:56:03;;;;;;;48.07;44.57;;;;;;;2.42;100.00;100471.66;4993094;28;20423;-47
2022/11/18 03:58:36;;;;;;;43.83;40.97;;;;;;;2.39;100.00;100485.91;4992589;28;20489;-47
2022/11/18 04:01:11;;;;;;;43.10;40.30;;;;;;;2.41;100.00;100472.63;4992715;28;20820;-47
2022/11/18 04:03:39;;;;;;;45.83;42.67;;;;;;;2.42;100.00;100471.66;4993231;28;20441;-47
2022/11/18 04:06:15;;;;;;;43.77;40.73;;;;;;;2.42;100.00;100477.72;4992757;28;20485;-48
2022/11/18 04:08:46;;;;;;;43.90;40.80;;;;;;;2.47;100.00;100479.91;4992479;28;20990;-47
2022/11/18 04:14:01;;;;;;;42.40;39.50;;;;;;;2.50;100.00;100496.25;5007845;28;20441;-47
2022/11/18 04:16:30;;;;;;;44.13;41.07;;;;;;;2.52;100.00;100491.66;5001906;28;20440;-47
2022/11/18 04:18:57;;;;;;;45.17;41.93;;;;;;;2.55;100.00;100498.41;5011731;28;20469;-50
2022/11/18 04:21:32;;;;;;;44.43;41.30;;;;;;;2.58;100.00;100498.94;5012157;28;20428;-47
2022/11/18 04:24:00;;;;;;;45.33;42.17;;;;;;;2.60;100.00;100499.59;5012190;28;20811;-47
2022/11/18 04:26:27;;;;;;;46.27;42.60;;;;;;;2.62;100.00;100504.75;5012253;28;20516;-47
2022/11/18 04:28:55;;;;;;;44.67;41.43;;;;;;;2.62;100.00;100504.75;5004354;28;20472;-46
2022/11/18 04:31:23;;;;;;;45.87;42.27;;;;;;;2.61;100.00;100503.91;4992190;28;20450;-51
2022/11/18 04:33:52;;;;;;;45.50;42.20;;;;;;;2.54;100.00;100504.66;4992623;28;20434;-46
2022/11/18 04:36:19;;;;;;;44.37;41.47;;;;;;;2.43;100.00;100510.13;4992048;28;20467;-49
2022/11/18 04:38:47;;;;;;;44.50;41.50;;;;;;;2.36;100.00;100502.00;4991742;28;20855;-48
2022/11/18 04:41:15;;;;;;;43.47;40.67;;;;;;;2.32;100.00;100513.00;4992267;28;20927;-46
2022/11/18 04:43:42;;;;;;;44.20;41.10;;;;;;;2.25;100.00;100507.50;4992637;28;20804;-45
2022/11/18 04:46:10;;;;;;;44.30;41.20;;;;;;;2.19;100.00;100514.19;4992255;28;21045;-45
2022/11/18 04:48:37;;;;;;;43.47;40.37;;;;;;;2.17;100.00;100510.88;4991856;28;20504;-51
2022/11/18 04:51:06;;;;;;;41.80;39.10;;;;;;;2.13;100.00;100509.50;4991895;28;20461;-47
2022/11/18 04:53:34;;;;;;;42.37;39.57;;;;;;;2.12;100.00;100515.75;4992156;28;20488;-45
2022/11/18 04:56:05;;;;;;;42.07;39.10;;;;;;;2.10;100.00;100517.69;4992400;28;20430;-47
2022/11/18 04:58:33;;;;;;;41.97;39.17;;;;;;;2.07;100.00;100507.47;4991868;28;20472;-45
2022/11/18 05:01:01;;;;;;;42.17;39.17;;;;;;;2.04;100.00;100527.97;4992024;28;20446;-47
2022/11/18 05:03:28;;;;;;;44.43;41.23;;;;;;;2.04;100.00;100517.47;4992073;28;20430;-45
2022/11/18 05:05:56;;;;;;;42.77;40.17;;;;;;;2.04;100.00;100525.34;4992004;28;20474;-46
2022/11/18 05:08:25;;;;;;;40.87;38.37;;;;;;;2.01;100.00;100530.91;4991611;28;20496;-48
2022/11/18 05:12:47;;;;;;;40.63;37.97;;;;;;;2.02;100.00;100522.03;4991800;28;20461;-45
2022/11/18 05:13:40;;;;;;;42.00;39.00;;;;;;;2.05;100.00;100527.00;4992042;28;20438;-46
2022/11/18 05:16:07;;;;;;;39.77;37.07;;;;;;;2.06;100.00;100529.47;4991943;28;20481;-47
2022/11/18 05:18:35;;;;;;;37.93;35.83;;;;;;;2.07;100.00;100523.25;4991815;28;20466;-48
2022/11/18 05:21:05;;;;;;;40.07;37.67;;;;;;;2.11;100.00;100552.72;4992011;28;20477;-47
2022/11/18 05:23:34;;;;;;;40.57;38.00;;;;;;;2.14;100.00;100539.28;4992154;28;20434;-46
2022/11/18 05:26:03;;;;;;;39.37;37.07;;;;;;;2.14;100.00;100542.75;4991988;28;20474;-49
2022/11/18 05:28:30;;;;;;;38.77;36.10;;;;;;;2.17;100.00;100541.63;4991498;28;20500;-47
2022/11/18 05:30:58;;;;;;;39.27;36.77;;;;;;;2.19;100.00;100543.13;4991580;28;20457;-47
2022/11/18 05:33:26;;;;;;;39.63;37.13;;;;;;;2.19;100.00;100561.53;4992099;28;20469;-47
2022/11/18 05:35:53;;;;;;;36.60;34.60;;;;;;;2.20;100.00;100549.22;4992045;28;20434;-46
2022/11/18 05:38:23;;;;;;;36.07;33.97;;;;;;;2.22;100.00;100518.31;4991493;28;20853;-46
2022/11/18 05:40:52;;;;;;;34.67;32.67;;;;;;;2.26;100.00;100572.31;4991584;28;20697;-45
2022/11/18 05:43:18;;;;;;;33.60;31.90;;;;;;;2.29;100.00;100563.28;4991945;28;20429;-45
2022/11/18 05:45:46;;;;;;;33.27;31.57;;;;;;;2.28;100.00;100575.59;4991948;28;20473;-45
2022/11/18 05:48:13;;;;;;;32.60;30.83;;;;;;;2.31;100.00;100574.47;4992413;28;20441;-48
2022/11/18 05:50:41;;;;;;;32.87;31.00;;;;;;;2.29;100.00;100573.81;4995375;28;20507;-45
2022/11/18 05:53:09;;;;;;;32.20;30.20;;;;;;;2.27;100.00;100581.84;4993153;28;20438;-46
2022/11/18 05:55:40;;;;;;;33.90;32.20;;;;;;;2.26;100.00;100588.09;4995259;28;20436;-45
2022/11/18 05:58:09;;;;;;;33.60;31.90;;;;;;;2.23;100.00;100581.31;4995202;28;20998;-46
2022/11/18 06:00:37;;;;;;;33.67;31.67;;;;;;;2.19;100.00;100597.53;4994976;28;20454;-45
2022/11/18 06:03:13;;;;;;;34.50;32.80;;;;;;;2.17;100.00;100605.59;4994961;28;20437;-45
2022/11/18 06:05:41;;;;;;;33.10;31.23;;;;;;;2.13;100.00;100606.00;4995188;28;20473;-45
2022/11/18 06:08:12;;;;;;;34.43;32.63;;;;;;;2.11;100.00;100631.63;4995104;28;20862;-44
2022/11/18 06:10:41;;;;;;;33.73;31.83;;;;;;;2.08;100.00;100600.38;4994569;28;20460;-48
2022/11/18 06:13:16;;;;;;;34.07;32.17;;;;;;;2.07;100.00;100609.22;4995038;28;20499;-45
2022/11/18 06:15:45;;;;;;;33.80;32.10;;;;;;;2.06;100.00;100620.72;4995072;28;20433;-45
2022/11/18 06:18:20;;;;;;;34.60;32.80;;;;;;;2.03;100.00;100615.75;4994592;28;20809;-45
2022/11/18 06:20:48;;;;;;;33.10;31.33;;;;;;;2.01;100.00;100618.53;4994501;28;20449;-45
2022/11/18 06:23:16;;;;;;;32.43;30.77;;;;;;;1.97;100.00;100622.41;4994948;28;20441;-45
2022/11/18 06:25:44;;;;;;;32.37;30.50;;;;;;;1.95;100.00;100631.41;4994844;28;20473;-44
2022/11/18 06:28:15;;;;;;;30.80;29.30;;;;;;;1.91;100.00;100641.38;4994416;28;20808;-46
2022/11/18 06:30:43;;;;;;;32.80;30.90;;;;;;;1.92;100.00;100639.59;4994638;28;20815;-46
2022/11/18 06:33:10;;;;;;;32.40;30.20;;;;;;;1.88;100.00;100636.41;4994651;28;20791;-46
2022/11/18 06:35:38;;;;;;;31.80;30.03;;;;;;;1.85;100.00;100634.06;4994779;28;20437;-46
2022/11/18 06:38:06;;;;;;;31.13;29.53;;;;;;;1.83;100.00;100657.06;4994605;28;20430;-49
2022/11/18 06:40:34;;;;;;;32.60;30.80;;;;;;;1.82;100.00;100660.69;4993957;28;20979;-46
2022/11/18 06:48:36;;;;;;;38.03;33.40;;;;;;;1.79;100.00;100668.03;4993656;28;20458;-48
2022/11/18 06:51:04;;;;;;;36.30;34.27;;;;;;;1.76;100.00;100671.75;4994057;28;20459;-50
2022/11/18 06:53:33;;;;;;;37.00;35.00;;;;;;;1.77;100.00;100672.56;4992471;28;21211;-49
2022/11/18 06:56:03;;;;;;;36.20;34.17;;;;;;;1.75;100.00;100675.34;4994160;28;20477;-47
2022/11/18 06:58:31;;;;;;;38.97;36.77;;;;;;;1.73;100.00;100700.13;4993968;28;20469;-48
2022/11/18 07:01:09;;;;;;;36.07;34.00;;;;;;;1.74;100.00;100701.75;4992463;28;20453;-52
2022/11/18 07:03:37;;;;;;;37.13;34.80;;;;;;;1.74;100.00;100694.72;4994049;28;20601;-45
2022/11/18 07:06:05;;;;;;;35.40;33.50;;;;;;;1.74;100.00;100697.34;4993958;28;20719;-48
2022/11/18 07:08:34;;;;;;;39.27;36.63;;;;;;;1.74;100.00;100696.50;4993534;28;20823;-48
2022/11/18 07:11:04;;;;;;;38.00;35.70;;;;;;;1.74;100.00;100694.72;4992713;28;20462;-45
2022/11/18 07:13:32;;;;;;;36.57;34.57;;;;;;;1.73;100.00;100708.00;4988314;28;20784;-45
2022/11/18 07:16:05;;;;;;;37.53;34.80;;;;;;;1.71;100.00;100716.03;4993209;28;20457;-47
2022/11/18 07:18:34;;;;;;;35.97;33.93;;;;;;;1.73;100.00;100715.91;4993227;28;20461;-46
2022/11/18 07:21:03;;;;;;;36.10;34.10;;;;;;;1.73;100.00;100713.28;4970339;28;20472;-49
2022/11/18 07:23:31;;;;;;;36.13;34.03;;;;;;;1.75;100.00;100725.31;4993335;28;20446;-47
2022/11/18 07:25:59;;;;;;;36.13;34.03;;;;;;;1.74;100.00;100728.06;4993537;28;20482;-49
2022/11/18 07:28:28;;;;;;;36.43;34.23;;;;;;;1.76;100.00;100736.66;4993472;28;20633;-46
2022/11/18 07:31:01;;;;;;;34.50;32.80;;;;;;;1.76;100.00;100719.09;4989653;28;20473;-46
2022/11/18 07:33:30;;;;;;;36.40;34.30;;;;;;;1.78;100.00;100739.97;4993325;28;20437;-45
2022/11/18 07:36:01;;;;;;;34.23;32.43;;;;;;;1.78;100.00;100747.84;4989838;28;20442;-48
2022/11/18 07:38:29;;;;;;;36.27;34.13;;;;;;;1.82;100.00;100749.25;4993247;28;20438;-46
2022/11/18 07:41:03;;;;;;;36.03;33.90;;;;;;;1.82;100.00;100739.56;4992279;28;21023;-46
2022/11/18 07:43:31;;;;;;;34.77;32.87;;;;;;;1.85;100.00;100757.66;4993074;28;20469;-47
2022/11/18 07:45:58;;;;;;;34.93;32.83;;;;;;;1.86;100.00;100742.72;4992324;28;20828;-47
2022/11/18 07:48:26;;;;;;;34.10;32.30;;;;;;;1.89;100.00;100758.22;4993013;28;20915;-45
2022/11/18 07:50:55;;;;;;;33.27;31.47;;;;;;;1.88;100.00;100767.88;4993997;28;20474;-46
2022/11/18 07:53:23;;;;;;;34.17;32.33;;;;;;;1.91;100.00;100782.59;4990477;28;20434;-47
2022/11/18 07:55:50;;;;;;;34.77;32.77;;;;;;;1.93;100.00;100781.47;4990886;28;20445;-46
2022/11/18 07:58:18;;;;;;;32.90;31.20;;;;;;;1.94;100.00;100766.53;4989613;28;20804;-48
2022/11/18 08:00:46;;;;;;;33.27;31.47;;;;;;;1.91;100.00;100770.25;4991225;28;20468;-45
2022/11/18 08:03:13;;;;;;;31.43;29.77;;;;;;;1.94;100.00;100788.38;4992668;28;20962;-46
2022/11/18 08:05:41;;;;;;;33.17;31.20;;;;;;;1.97;100.00;100782.03;4992594;28;20430;-45
2022/11/18 08:08:10;;;;;;;29.10;27.60;;;;;;;1.96;100.00;100777.72;4992604;28;20943;-46
2022/11/18 08:10:38;;;;;;;30.13;28.23;;;;;;;2.01;100.00;100772.88;4991727;28;20473;-47
2022/11/18 08:13:05;;;;;;;27.77;26.50;;;;;;;2.05;100.00;100782.13;4991211;28;20442;-47
2022/11/18 08:15:33;;;;;;;28.47;26.80;;;;;;;2.08;100.00;100792.38;4991750;28;20444;-47
2022/11/18 08:18:01;;;;;;;28.70;26.70;;;;;;;2.12;100.00;100788.50;4990298;28;20476;-47
2022/11/18 08:20:28;;;;;;;29.07;27.47;;;;;;;2.17;100.00;100796.81;4989837;28;20458;-46
2022/11/18 08:22:56;;;;;;;27.90;26.20;;;;;;;2.19;100.00;100805.38;4992436;28;20441;-46
2022/11/18 08:25:25;;;;;;;27.03;25.20;;;;;;;2.26;100.00;100801.22;4992571;28;20438;-46
2022/11/18 08:27:52;;;;;;;26.67;25.37;;;;;;;2.31;100.00;100788.44;4982036;28;21189;-47
2022/11/18 08:30:20;;;;;;;26.33;24.93;;;;;;;2.34;100.00;100800.50;4992100;28;20454;-45
2022/11/18 08:32:48;;;;;;;26.60;25.20;;;;;;;2.40;99.83;100811.28;4989662;28;20453;-44
2022/11/18 08:35:15;;;;;;;25.80;24.53;;;;;;;2.44;98.71;100803.94;4992207;28;20441;-48
2022/11/18 08:37:43;;;;;;;26.27;24.87;;;;;;;2.47;97.77;100820.28;4992360;28;20463;-48
2022/11/18 08:40:11;;;;;;;24.67;23.47;;;;;;;2.43;95.33;100805.72;4992151;28;20472;-47
2022/11/18 08:42:40;;;;;;;26.60;24.90;;;;;;;2.53;95.96;100811.81;4991503;28;20469;-45
2022/11/18 08:45:08;;;;;;;24.83;23.50;;;;;;;2.57;95.66;100821.06;4992054;28;20434;-47
2022/11/18 08:47:37;;;;;;;24.50;23.13;;;;;;;2.64;95.20;100829.22;4992072;28;20474;-44
2022/11/18 08:50:05;;;;;;;23.67;22.57;;;;;;;2.67;94.23;100848.22;4992155;28;20449;-49
2022/11/18 08:52:33;;;;;;;24.60;23.10;;;;;;;2.76;93.23;100830.72;4991114;28;20461;-46
2022/11/18 08:55:01;;;;;;;23.00;22.00;;;;;;;2.79;92.22;100843.59;4990882;28;20426;-46
2022/11/18 08:57:29;;;;;;;24.03;22.83;;;;;;;2.81;90.73;100822.41;4992138;28;20430;-46
2022/11/18 08:59:58;;;;;;;23.13;22.10;;;;;;;2.81;89.24;100831.09;4992222;28;20457;-46
2022/11/18 09:02:26;;;;;;;22.13;21.13;;;;;;;2.87;88.60;100846.31;4988496;28;20505;-47
2022/11/18 09:04:53;;;;;;;21.53;20.53;;;;;;;2.96;89.71;100849.88;4992302;28;20433;-46
2022/11/18 09:07:22;;;;;;;22.67;21.60;;;;;;;3.08;89.03;100856.63;4991740;28;20477;-49
2022/11/18 09:09:49;;;;;;;20.27;19.17;;;;;;;3.10;86.84;100867.88;4991961;28;20501;-48
2022/11/18 09:12:17;;;;;;;21.20;20.20;;;;;;;3.23;88.56;100849.91;4991237;28;20466;-48
2022/11/18 09:14:45;;;;;;;20.17;19.20;;;;;;;3.26;86.60;100854.88;5037273;22;20488;-47
2022/11/18 09:17:35;;;;;;;20.43;19.33;;;;;;;3.29;86.87;100868.59;5012718;28;20421;-49
2022/11/18 09:20:02;;;;;;;19.83;18.93;;;;;;;3.27;85.09;100856.56;5020009;28;20428;-51
2022/11/18 09:22:30;;;;;;;20.70;19.70;;;;;;;3.36;85.33;100863.59;5030785;28;20483;-45
2022/11/18 09:24:57;;;;;;;20.07;19.20;;;;;;;3.40;84.61;100845.66;5028368;28;20477;-47
2022/11/18 09:27:25;;;;;;;19.50;18.67;;;;;;;3.46;83.79;100859.09;5012363;28;20476;-48
2022/11/18 09:29:52;;;;;;;19.63;18.73;;;;;;;3.52;83.03;100863.78;5002747;28;20778;-49
2022/11/18 09:32:20;;;;;;;17.97;17.27;;;;;;;3.50;82.19;100857.81;5006634;28;20464;-47
2022/11/18 09:34:49;;;;;;;16.37;15.77;;;;;;;3.54;80.84;100855.72;5010475;28;20858;-45
2022/11/18 09:37:16;;;;;;;16.30;15.70;;;;;;;3.61;80.47;100865.53;5007922;28;20843;-51
2022/11/18 09:39:44;;;;;;;15.20;14.60;;;;;;;3.61;79.80;100883.16;5002083;28;20873;-46
2022/11/18 09:42:28;;;;;;;15.77;14.87;;;;;;;3.66;80.41;100887.00;4995418;28;20603;-45
2022/11/18 09:45:05;;;;;;;15.20;14.43;;;;;;;3.75;79.91;100880.84;4984021;28;20446;-49
2022/11/18 09:47:40;;;;;;;15.70;14.80;;;;;;;3.85;80.55;100878.13;4976314;28;20478;-48
2022/11/18 09:50:13;;;;;;;14.57;13.90;;;;;;;3.85;79.51;100886.03;4989023;28;20434;-46
2022/11/18 09:53:09;;;;;;;14.20;13.40;;;;;;;3.79;79.64;100887.44;5012957;28;20808;-47
2022/11/18 09:55:39;;;;;;;14.37;13.70;;;;;;;3.82;80.87;100892.44;5007880;28;20437;-51
2022/11/18 09:58:11;;;;;;;14.57;13.60;;;;;;;3.95;81.15;100894.69;5008047;28;20426;-51
2022/11/18 10:00:43;;;;;;;14.83;14.03;;;;;;;4.06;80.84;100893.66;5012625;28;20430;-50
2022/11/18 10:03:15;;;;;;;13.40;12.80;;;;;;;4.09;79.43;100901.28;4984223;28;20525;-47
2022/11/18 10:05:50;;;;;;;13.20;12.60;;;;;;;4.20;79.34;100906.31;4998816;28;20438;-45
2022/11/18 10:08:24;;;;;;;12.10;11.60;;;;;;;4.21;78.44;100898.22;4995132;28;20472;-49
2022/11/18 10:11:00;;;;;;;12.50;11.80;;;;;;;4.20;77.73;100911.59;4993407;28;20466;-47
2022/11/18 10:13:42;;;;;;;11.77;11.17;;;;;;;4.17;76.90;100909.25;4979693;28;20830;-47
2022/11/18 10:16:22;;;;;;;11.50;10.80;;;;;;;4.19;76.44;100899.38;5030162;28;20925;-51
2022/11/18 10:18:57;;;;;;;11.40;10.80;;;;;;;4.15;76.07;100921.78;5005639;28;20429;-46
2022/11/18 10:21:44;;;;;;;11.40;10.80;;;;;;;4.24;76.20;100902.41;5008240;28;21008;-45
2022/11/18 10:24:18;;;;;;;11.90;11.20;;;;;;;4.38;78.11;100912.41;5017639;28;20825;-50
2022/11/18 10:26:47;;;;;;;11.30;10.80;;;;;;;4.47;78.55;100904.41;4996130;28;20488;-50
2022/11/18 10:29:14;;;;;;;10.60;10.00;;;;;;;4.53;78.54;100902.13;5020127;28;20534;-48
2022/11/18 10:31:56;;;;;;;10.77;10.27;;;;;;;4.67;77.34;100910.34;5028956;28;20463;-50
2022/11/18 10:34:30;;;;;;;10.27;9.77;;;;;;;4.57;73.28;100924.63;5020771;28;21233;-47
2022/11/18 10:37:01;;;;;;;11.67;10.80;;;;;;;4.51;72.86;100907.56;5007329;28;20443;-52
2022/11/18 10:39:29;;;;;;;10.27;9.77;;;;;;;4.47;72.31;100914.97;5005665;28;20425;-46
2022/11/18 10:42:00;;;;;;;10.40;9.80;;;;;;;4.41;70.58;100920.03;5020424;28;20470;-49
2022/11/18 10:44:38;;;;;;;9.83;9.17;;;;;;;4.54;70.98;100925.75;5018618;28;20472;-46
2022/11/18 10:47:31;;;;;;;10.00;9.60;;;;;;;4.55;70.92;100927.41;5013656;28;20450;-48
2022/11/18 10:50:00;;;;;;;9.73;9.33;;;;;;;4.51;70.74;100943.72;5007782;28;20444;-47
2022/11/18 10:52:30;;;;;;;8.23;7.83;;;;;;;4.51;70.92;100941.88;5013279;28;20575;-49
2022/11/18 10:55:19;;;;;;;9.37;8.90;;;;;;;4.53;70.57;100950.50;5020431;28;20440;-48
2022/11/18 10:57:48;;;;;;;8.83;8.40;;;;;;;4.66;71.25;100948.28;5024579;28;20947;-50
2022/11/18 11:00:38;;;;;;;9.67;8.87;;;;;;;4.70;69.53;100938.25;5005348;28;20430;-48
2022/11/18 11:03:28;;;;;;;7.40;7.10;;;;;;;4.68;69.97;100959.56;4978099;28;20453;-51
2022/11/18 11:06:30;;;;;;;8.27;7.93;;;;;;;4.75;69.40;100965.84;5000350;28;20901;-49
2022/11/18 11:09:02;;;;;;;7.60;7.30;;;;;;;4.74;69.94;100942.25;5003264;28;20456;-53
2022/11/18 11:11:31;;;;;;;8.03;7.63;;;;;;;4.71;69.98;100956.59;5012834;28;20981;-49
2022/11/18 11:14:13;;;;;;;7.83;7.27;;;;;;;4.75;70.61;100943.91;5009454;28;20496;-51
2022/11/18 11:16:47;;;;;;;7.60;7.27;;;;;;;4.79;71.18;100974.31;5022280;28;20436;-47
2022/11/18 11:19:17;;;;;;;7.30;6.90;;;;;;;4.80;72.04;100946.91;5022807;28;20431;-46
2022/11/18 11:21:44;;;;;;;7.73;7.30;;;;;;;4.86;72.55;100955.06;5008747;28;20467;-50
2022/11/18 11:24:13;;;;;;;7.87;7.27;;;;;;;4.98;72.29;100955.63;5004200;28;20457;-47
2022/11/18 11:26:50;;;;;;;8.37;7.77;;;;;;;5.13;71.62;100954.09;5020529;28;20436;-49
2022/11/18 11:30:00;;;;;;;6.87;6.57;;;;;;;5.15;71.00;100949.47;5022342;28;20559;-48
2022/11/18 11:32:38;;;;;;;6.83;6.43;;;;;;;5.06;70.80;100949.56;5014842;28;20511;-47
2022/11/18 11:35:13;;;;;;;6.73;6.43;;;;;;;5.03;70.82;100945.41;5016207;28;21082;-54
2022/11/18 11:37:52;;;;;;;6.80;6.40;;;;;;;4.99;71.36;100947.53;5002023;28;20502;-50
2022/11/18 11:40:29;;;;;;;7.03;6.73;;;;;;;4.89;71.80;100954.75;5002670;28;20974;-50
2022/11/18 11:43:15;;;;;;;6.67;6.40;;;;;;;5.00;72.50;100954.50;5009295;28;20494;-46
2022/11/18 11:46:02;;;;;;;8.10;7.70;;;;;;;5.03;72.12;100940.97;5015678;28;20440;-45